METAR Data
IDs: Format: Raw Decoded Include TAF

Data at: 0727 UTC 01 Aug 2021

LICR 010720Z AUTO 35009KT 9999 NCD 36/10 Q1012